Time;durP1;ratioP1;P1;durP2;ratioP2;P2;SDS_P1;SDS_P2;PMS_P1;PMS_P2;Temp;Humidity;BMP_temperature;BMP_pressure;BME280_temperature;BME280_humidity;BME280_pressure;Samples;Min_cycle;Max_cycle;Signal;HPM_P1;HPM_P2
2022/12/23 00:01:06;;;;;;;0.25;0.25;;;12.90;99.90;;;;;;5075604;28;20024;-68
2022/12/23 00:03:33;;;;;;;0.20;0.20;;;12.80;99.90;;;;;;5075470;28;20036;-68
2022/12/23 00:05:59;;;;;;;0.20;0.20;;;12.80;99.90;;;;;;5074992;28;20067;-68
2022/12/23 00:08:25;;;;;;;0.30;0.30;;;12.80;99.90;;;;;;5075895;28;20052;-67
2022/12/23 00:10:56;;;;;;;0.22;0.22;;;12.80;99.90;;;;;;5076832;28;20032;-69
2022/12/23 00:16:12;;;;;;;0.30;0.30;;;12.80;99.90;;;;;;5076791;28;20090;-67
2022/12/23 00:18:39;;;;;;;0.30;0.30;;;12.80;99.90;;;;;;5076268;28;20065;-68
2022/12/23 00:21:11;;;;;;;0.50;0.50;;;12.80;99.90;;;;;;5074782;28;20056;-68
2022/12/23 00:23:40;;;;;;;0.20;0.20;;;12.80;99.90;;;;;;5074289;28;20612;-68
2022/12/23 00:26:06;;;;;;;0.20;0.20;;;12.80;99.90;;;;;;5074036;28;20113;-68
2022/12/23 00:28:32;;;;;;;0.30;0.30;;;12.80;99.90;;;;;;5074354;28;20032;-68
2022/12/23 00:31:00;;;;;;;0.20;0.20;;;12.70;99.90;;;;;;5072887;28;20522;-68
2022/12/23 00:33:38;;;;;;;0.20;0.20;;;12.80;99.90;;;;;;5074228;28;20056;-68
2022/12/23 00:36:15;;;;;;;0.30;0.30;;;12.70;99.90;;;;;;5074319;28;20123;-67
2022/12/23 00:44:10;;;;;;;0.20;0.20;;;12.80;99.90;;;;;;5073973;28;20029;-68
2022/12/23 00:46:36;;;;;;;0.30;0.30;;;12.80;99.90;;;;;;5073548;28;20032;-70
2022/12/23 00:51:46;;;;;;;0.20;0.20;;;12.80;99.90;;;;;;5074043;28;20467;-69
2022/12/23 00:54:12;;;;;;;0.20;0.20;;;12.80;99.90;;;;;;5073428;28;20488;-67
2022/12/23 00:56:37;;;;;;;0.20;0.20;;;12.80;99.90;;;;;;5072353;28;20025;-68
2022/12/23 00:59:03;;;;;;;0.20;0.20;;;12.80;99.90;;;;;;5072787;28;20059;-68
2022/12/23 01:06:59;;;;;;;0.20;0.20;;;12.70;99.90;;;;;;5074045;28;20056;-68
2022/12/23 01:09:26;;;;;;;0.20;0.20;;;12.70;99.90;;;;;;5073982;28;20465;-67
2022/12/23 01:11:52;;;;;;;0.20;0.20;;;12.70;99.90;;;;;;5074746;28;20100;-68
2022/12/23 01:14:18;;;;;;;0.20;0.20;;;12.70;99.90;;;;;;5073399;28;20108;-68
2022/12/23 01:16:44;;;;;;;0.20;0.20;;;12.70;99.90;;;;;;5073212;28;20489;-69
2022/12/23 01:19:10;;;;;;;0.20;0.20;;;12.70;99.90;;;;;;5073091;28;20029;-68
2022/12/23 01:21:35;;;;;;;0.20;0.20;;;12.70;99.90;;;;;;5073146;28;20021;-68
2022/12/23 01:24:02;;;;;;;0.28;0.28;;;12.70;99.90;;;;;;5072897;28;20139;-68
2022/12/23 01:26:27;;;;;;;0.20;0.20;;;12.70;99.90;;;;;;5073085;28;20043;-67
2022/12/23 01:28:54;;;;;;;0.20;0.20;;;12.70;99.90;;;;;;5073018;28;20046;-69
2022/12/23 01:31:21;;;;;;;0.20;0.20;;;12.70;99.90;;;;;;5071910;28;20537;-68
2022/12/23 01:33:47;;;;;;;0.20;0.20;;;12.70;99.90;;;;;;5072879;28;20112;-68
2022/12/23 01:36:12;;;;;;;0.73;0.73;;;12.70;99.90;;;;;;5072663;28;20112;-68
2022/12/23 01:38:38;;;;;;;1.00;1.00;;;12.60;99.90;;;;;;5072948;28;20024;-67
2022/12/23 01:41:04;;;;;;;0.30;0.30;;;12.60;99.90;;;;;;5073306;28;20078;-68
2022/12/23 01:43:48;;;;;;;2.10;1.65;;;12.60;99.90;;;;;;5073067;28;20078;-68
2022/12/23 01:46:14;;;;;;;0.20;0.20;;;12.60;99.90;;;;;;5073125;28;20043;-69
2022/12/23 01:48:43;;;;;;;0.30;0.30;;;12.60;99.90;;;;;;5072788;28;20082;-68
2022/12/23 01:51:15;;;;;;;0.20;0.20;;;12.60;99.90;;;;;;5072775;28;20026;-68
2022/12/23 01:53:49;;;;;;;3.72;1.50;;;12.60;99.90;;;;;;5072763;28;20021;-68
2022/12/23 01:56:19;;;;;;;0.30;0.30;;;12.60;99.90;;;;;;5072584;28;20028;-69
2022/12/23 01:58:47;;;;;;;0.20;0.20;;;12.60;99.90;;;;;;5072492;28;20419;-68
2022/12/23 02:04:03;;;;;;;0.20;0.20;;;12.50;99.90;;;;;;5072630;28;20526;-68
2022/12/23 02:09:21;;;;;;;0.20;0.20;;;12.50;99.90;;;;;;5072551;28;20027;-68
2022/12/23 02:12:11;;;;;;;0.20;0.20;;;12.50;99.90;;;;;;5072162;28;20029;-69
2022/12/23 02:17:32;;;;;;;0.20;0.20;;;12.50;99.90;;;;;;5072153;28;20533;-68
2022/12/23 02:20:29;;;;;;;0.20;0.20;;;12.50;99.90;;;;;;5072078;28;20099;-68
2022/12/23 02:23:13;;;;;;;0.40;0.40;;;12.50;99.90;;;;;;5072224;28;20480;-68
2022/12/23 02:25:58;;;;;;;3.83;1.48;;;12.50;99.90;;;;;;5072374;28;20550;-68
2022/12/23 02:28:45;;;;;;;0.30;0.30;;;12.50;99.90;;;;;;5072547;28;20060;-68
2022/12/23 02:31:27;;;;;;;0.20;0.20;;;12.50;99.90;;;;;;5072122;28;20082;-68
2022/12/23 02:33:59;;;;;;;0.30;0.30;;;12.50;99.90;;;;;;5072317;28;20040;-69
2022/12/23 02:36:37;;;;;;;0.25;0.25;;;12.50;99.90;;;;;;5072514;28;20029;-69
2022/12/23 02:39:25;;;;;;;0.28;0.28;;;12.50;99.90;;;;;;5069981;28;20029;-68
2022/12/23 02:42:01;;;;;;;0.20;0.20;;;12.50;99.90;;;;;;5069697;28;20492;-68
2022/12/23 02:44:43;;;;;;;0.20;0.20;;;12.50;99.90;;;;;;5072047;28;20052;-69
2022/12/23 02:47:32;;;;;;;0.20;0.20;;;12.50;99.90;;;;;;5052426;28;20198;-69
2022/12/23 02:50:04;;;;;;;0.20;0.20;;;12.50;99.90;;;;;;5055167;28;20036;-68
2022/12/23 02:52:32;;;;;;;0.20;0.20;;;12.50;99.90;;;;;;5055405;28;20051;-67
2022/12/23 02:55:05;;;;;;;29.98;1.45;;;12.50;99.90;;;;;;5053497;28;20068;-68
2022/12/23 02:57:34;;;;;;;0.20;0.20;;;12.50;99.90;;;;;;5054835;28;20116;-68
2022/12/23 03:00:02;;;;;;;0.22;0.22;;;12.50;99.90;;;;;;5052080;28;20056;-68
2022/12/23 03:02:29;;;;;;;0.28;0.28;;;12.50;99.90;;;;;;5051455;28;20017;-68
2022/12/23 03:04:55;;;;;;;0.30;0.30;;;12.50;99.90;;;;;;5049991;28;20428;-68
2022/12/23 03:07:47;;;;;;;0.85;0.85;;;12.50;99.90;;;;;;5051308;28;20470;-68
2022/12/23 03:10:25;;;;;;;;;;;12.50;99.90;;;;;;5051162;28;20060;-69
2022/12/23 03:13:03;;;;;;;0.20;0.20;;;12.50;99.90;;;;;;5050253;28;19905;-68
2022/12/23 03:16:08;;;;;;;0.22;0.22;;;12.50;99.90;;;;;;5052008;28;20515;-69
2022/12/23 03:18:39;;;;;;;0.20;0.20;;;12.40;99.90;;;;;;5047380;28;20087;-68
2022/12/23 03:21:37;;;;;;;0.20;0.20;;;12.40;99.90;;;;;;5050720;28;20052;-69
2022/12/23 03:24:21;;;;;;;0.28;0.28;;;12.40;99.90;;;;;;5046388;28;20037;-68
2022/12/23 03:27:25;;;;;;;0.20;0.20;;;12.40;99.90;;;;;;5069496;28;20033;-69
2022/12/23 03:30:02;;;;;;;0.40;0.40;;;12.40;99.90;;;;;;4988943;28;20065;-69
2022/12/23 03:32:34;;;;;;;0.25;0.25;;;12.40;99.90;;;;;;5060272;28;20043;-69
2022/12/23 03:35:03;;;;;;;0.20;0.20;;;12.30;99.90;;;;;;5070606;28;20505;-67
2022/12/23 03:37:33;;;;;;;0.20;0.20;;;12.30;99.90;;;;;;5070745;28;20654;-68
2022/12/23 03:40:07;;;;;;;0.20;0.20;;;12.30;99.90;;;;;;5070571;28;20119;-69
2022/12/23 03:42:37;;;;;;;0.30;0.30;;;12.30;99.90;;;;;;5070584;28;20033;-68
2022/12/23 03:45:10;;;;;;;0.30;0.30;;;12.30;99.90;;;;;;5070596;28;20102;-68
2022/12/23 03:47:49;;;;;;;0.30;0.30;;;12.30;99.90;;;;;;5070970;28;20032;-68
2022/12/23 03:50:18;;;;;;;0.20;0.20;;;12.20;99.90;;;;;;5070681;28;20035;-68
2022/12/23 03:53:12;;;;;;;0.20;0.20;;;12.20;99.90;;;;;;5070763;28;20025;-68
2022/12/23 03:55:44;;;;;;;1.02;0.98;;;12.20;99.90;;;;;;5068416;28;20081;-68
2022/12/23 03:58:31;;;;;;;0.30;0.30;;;12.20;99.90;;;;;;5070964;28;20405;-69
2022/12/23 04:01:32;;;;;;;0.20;0.20;;;12.20;99.90;;;;;;5070658;28;20043;-67
2022/12/23 04:04:03;;;;;;;0.20;0.20;;;12.20;99.90;;;;;;5070530;28;20037;-67
2022/12/23 04:06:36;;;;;;;0.20;0.20;;;12.10;99.90;;;;;;5070602;28;20127;-68
2022/12/23 04:09:05;;;;;;;0.30;0.30;;;12.10;99.90;;;;;;5070388;28;20461;-68
2022/12/23 04:11:32;;;;;;;0.22;0.22;;;12.10;99.90;;;;;;5070512;28;20035;-68
2022/12/23 04:13:57;;;;;;;0.20;0.20;;;12.10;99.90;;;;;;5070478;28;20028;-69
2022/12/23 04:16:23;;;;;;;0.30;0.30;;;12.10;99.90;;;;;;5069042;28;20405;-69
2022/12/23 04:18:49;;;;;;;0.20;0.20;;;12.10;99.90;;;;;;5070634;28;20055;-70
2022/12/23 04:21:15;;;;;;;0.25;0.25;;;12.00;99.90;;;;;;5070474;28;20028;-69
2022/12/23 04:23:40;;;;;;;0.20;0.20;;;12.10;99.90;;;;;;5070434;28;20082;-69
2022/12/23 04:26:06;;;;;;;0.32;0.32;;;12.10;99.90;;;;;;5070429;28;20028;-68
2022/12/23 04:28:32;;;;;;;0.20;0.20;;;12.00;99.90;;;;;;5070551;28;20029;-70
2022/12/23 04:30:57;;;;;;;0.22;0.22;;;12.00;99.90;;;;;;5070502;28;20025;-69
2022/12/23 04:33:23;;;;;;;0.25;0.25;;;11.90;99.90;;;;;;5070661;28;20047;-69
2022/12/23 04:35:48;;;;;;;0.30;0.30;;;12.00;99.90;;;;;;5073421;28;20528;-69
2022/12/23 04:38:14;;;;;;;0.20;0.20;;;11.90;99.90;;;;;;5074142;28;20346;-68
2022/12/23 04:40:45;;;;;;;0.20;0.20;;;12.00;99.90;;;;;;5073963;28;20040;-69
2022/12/23 04:43:11;;;;;;;0.20;0.20;;;11.90;99.90;;;;;;5073689;28;20029;-69
2022/12/23 04:45:36;;;;;;;0.30;0.30;;;12.00;99.90;;;;;;5074035;28;20044;-69
2022/12/23 04:48:02;;;;;;;0.30;0.30;;;12.00;99.90;;;;;;5073735;28;20028;-69
2022/12/23 04:50:28;;;;;;;0.30;0.30;;;12.00;99.90;;;;;;5073735;28;20028;-69
2022/12/23 04:52:54;;;;;;;0.20;0.20;;;12.00;99.90;;;;;;5073851;28;20021;-69
2022/12/23 04:55:19;;;;;;;0.20;0.20;;;12.00;99.90;;;;;;5073638;28;20025;-69
2022/12/23 04:57:45;;;;;;;0.30;0.30;;;12.00;99.90;;;;;;5073684;28;20021;-69
2022/12/23 05:00:11;;;;;;;0.22;0.22;;;12.00;99.90;;;;;;5073782;28;20025;-68
2022/12/23 05:02:36;;;;;;;0.30;0.30;;;12.10;99.90;;;;;;5074254;28;20090;-68
2022/12/23 05:05:03;;;;;;;0.55;0.55;;;12.10;99.90;;;;;;5073759;28;20024;-68
2022/12/23 05:07:29;;;;;;;0.20;0.20;;;12.00;99.90;;;;;;5073745;28;20027;-69
2022/12/23 05:10:00;;;;;;;0.20;0.20;;;12.00;99.90;;;;;;5074233;28;20456;-69
2022/12/23 05:12:29;;;;;;;0.20;0.20;;;12.00;99.90;;;;;;5073665;28;20036;-70
2022/12/23 05:14:54;;;;;;;0.20;0.20;;;12.00;99.90;;;;;;5077254;28;20089;-70
2022/12/23 05:17:20;;;;;;;0.30;0.30;;;12.00;99.90;;;;;;5080769;28;20048;-69
2022/12/23 05:19:46;;;;;;;0.30;0.30;;;12.00;99.90;;;;;;5079044;28;20028;-69
2022/12/23 05:22:11;;;;;;;0.40;0.40;;;11.90;99.90;;;;;;5075495;28;20017;-70
2022/12/23 05:24:37;;;;;;;0.20;0.20;;;11.90;99.90;;;;;;5076354;28;20044;-69
2022/12/23 05:27:03;;;;;;;0.20;0.20;;;12.00;99.90;;;;;;5075719;28;20485;-69
2022/12/23 05:29:28;;;;;;;0.20;0.20;;;12.00;99.90;;;;;;5073027;28;20377;-69
2022/12/23 05:31:54;;;;;;;0.20;0.20;;;12.00;99.90;;;;;;5073005;28;20086;-69
2022/12/23 05:34:20;;;;;;;0.20;0.20;;;12.10;99.90;;;;;;5072907;28;20488;-68
2022/12/23 05:36:46;;;;;;;0.20;0.20;;;12.10;99.90;;;;;;5072821;28;20032;-68
2022/12/23 05:39:11;;;;;;;0.20;0.20;;;12.10;99.90;;;;;;5072914;28;20029;-69
2022/12/23 05:41:37;;;;;;;0.95;0.95;;;12.10;99.90;;;;;;5072958;28;20027;-69
2022/12/23 05:44:03;;;;;;;0.20;0.20;;;12.10;99.90;;;;;;5071458;28;20067;-69
2022/12/23 05:46:28;;;;;;;0.30;0.30;;;12.10;99.90;;;;;;5072671;28;20032;-70
2022/12/23 05:48:54;;;;;;;0.20;0.20;;;12.00;99.90;;;;;;5072744;28;20052;-70
2022/12/23 05:51:20;;;;;;;0.20;0.20;;;12.10;99.90;;;;;;5072450;28;20392;-69
2022/12/23 05:53:45;;;;;;;0.20;0.20;;;12.00;99.90;;;;;;5072855;28;20042;-69
2022/12/23 05:56:11;;;;;;;0.20;0.20;;;12.00;99.90;;;;;;5072825;28;20512;-70
2022/12/23 05:58:37;;;;;;;0.30;0.30;;;12.00;99.90;;;;;;5072508;28;20046;-69
2022/12/23 06:01:03;;;;;;;0.35;0.35;;;12.00;99.90;;;;;;5072684;28;20112;-69
2022/12/23 06:03:29;;;;;;;0.30;0.30;;;11.90;99.90;;;;;;5072453;28;20021;-70
2022/12/23 06:05:54;;;;;;;0.28;0.28;;;11.90;99.90;;;;;;5072348;28;20044;-69
2022/12/23 06:08:20;;;;;;;0.20;0.20;;;11.80;99.90;;;;;;5072242;28;20020;-69
2022/12/23 06:10:47;;;;;;;0.25;0.25;;;11.90;99.90;;;;;;5072285;28;20025;-69
2022/12/23 06:13:12;;;;;;;0.38;0.38;;;11.80;99.90;;;;;;5072321;28;20091;-69
2022/12/23 06:15:38;;;;;;;0.20;0.20;;;11.80;99.90;;;;;;5072334;28;20052;-69
2022/12/23 06:18:04;;;;;;;0.20;0.20;;;11.80;99.90;;;;;;5072005;28;20055;-69
2022/12/23 06:20:29;;;;;;;0.30;0.30;;;11.80;99.90;;;;;;5071927;28;20024;-69
2022/12/23 06:22:55;;;;;;;0.20;0.20;;;11.90;99.90;;;;;;5071971;28;20044;-69
2022/12/23 06:25:21;;;;;;;0.20;0.20;;;11.90;99.90;;;;;;5071627;28;20056;-68
2022/12/23 06:27:46;;;;;;;0.20;0.20;;;11.90;1.00;;;;;;5072124;28;20063;-69
2022/12/23 06:30:13;;;;;;;0.20;0.20;;;11.90;1.00;;;;;;5072023;28;20545;-69
2022/12/23 06:32:39;;;;;;;0.20;0.20;;;11.90;1.00;;;;;;5071592;28;20016;-69
2022/12/23 06:35:06;;;;;;;0.20;0.20;;;12.00;1.00;;;;;;5071861;28;20141;-69
2022/12/23 06:37:32;;;;;;;0.30;0.30;;;12.00;1.00;;;;;;5071698;28;20047;-70
2022/12/23 06:39:57;;;;;;;0.45;0.45;;;12.00;1.00;;;;;;5071543;28;20017;-69
2022/12/23 06:42:23;;;;;;;0.20;0.20;;;12.00;1.00;;;;;;5072022;28;20043;-69
2022/12/23 06:44:49;;;;;;;0.20;0.20;;;12.10;1.00;;;;;;5070489;28;20025;-70
2022/12/23 06:47:15;;;;;;;0.30;0.30;;;12.10;1.00;;;;;;5071752;28;20492;-70
2022/12/23 06:49:41;;;;;;;0.30;0.30;;;12.00;1.00;;;;;;5071665;28;20051;-71
2022/12/23 06:52:06;;;;;;;0.30;0.30;;;12.10;1.00;;;;;;5071680;28;20025;-71
2022/12/23 06:54:32;;;;;;;0.20;0.20;;;12.00;1.00;;;;;;5071678;28;20025;-72
2022/12/23 06:56:58;;;;;;;2.67;2.47;;;12.00;1.00;;;;;;5071010;28;20545;-71
2022/12/23 06:59:23;;;;;;;0.20;0.20;;;12.10;1.00;;;;;;5066401;28;20033;-70
2022/12/23 07:01:49;;;;;;;0.20;0.20;;;12.10;1.00;;;;;;5054524;28;20024;-70
2022/12/23 07:04:15;;;;;;;0.30;0.30;;;12.10;1.00;;;;;;5049973;28;21048;-70
2022/12/23 07:06:41;;;;;;;0.45;0.45;;;12.10;1.00;;;;;;5053368;28;20056;-70
2022/12/23 07:09:06;;;;;;;0.30;0.30;;;12.10;1.00;;;;;;5055362;28;20047;-71
2022/12/23 07:11:33;;;;;;;0.30;0.30;;;12.20;1.00;;;;;;5071434;28;20028;-71
2022/12/23 07:13:59;;;;;;;0.25;0.25;;;12.20;8.20;;;;;;5071517;28;20012;-73
2022/12/23 07:16:25;;;;;;;0.22;0.22;;;12.20;1.60;;;;;;5069780;28;20025;-71
2022/12/23 07:18:51;;;;;;;0.20;0.20;;;12.20;5.00;;;;;;5071274;28;20032;-72
2022/12/23 07:21:16;;;;;;;0.20;0.20;;;12.30;10.70;;;;;;5070972;28;20036;-72
2022/12/23 07:23:42;;;;;;;0.20;0.20;;;12.30;16.80;;;;;;5070908;28;20216;-72
2022/12/23 07:26:08;;;;;;;0.30;0.30;;;12.30;24.00;;;;;;5071218;28;20032;-73
2022/12/23 07:28:35;;;;;;;0.25;0.25;;;12.30;27.40;;;;;;5071480;28;20412;-73
2022/12/23 07:31:03;;;;;;;0.20;0.20;;;12.40;28.80;;;;;;5061002;28;20073;-73
2022/12/23 07:33:29;;;;;;;0.30;0.30;;;12.40;34.70;;;;;;5051196;28;20048;-73
2022/12/23 07:35:58;;;;;;;0.20;0.20;;;12.40;47.50;;;;;;5053516;28;20028;-71
2022/12/23 07:38:24;;;;;;;0.20;0.20;;;12.50;57.90;;;;;;5050513;28;20039;-72
2022/12/23 07:40:49;;;;;;;0.30;0.30;;;12.50;68.70;;;;;;5052817;28;20024;-69
2022/12/23 07:43:15;;;;;;;1.08;1.05;;;12.50;76.80;;;;;;5051395;28;20029;-72
2022/12/23 07:45:41;;;;;;;0.75;0.75;;;12.60;92.30;;;;;;5058117;28;20048;-72
2022/12/23 07:48:08;;;;;;;0.20;0.20;;;12.70;96.40;;;;;;5054185;28;20107;-70
2022/12/23 07:50:34;;;;;;;0.30;0.30;;;12.70;99.50;;;;;;5053256;28;20029;-72
2022/12/23 07:52:59;;;;;;;0.20;0.20;;;12.70;99.90;;;;;;5050978;28;20413;-74
2022/12/23 07:55:25;;;;;;;0.30;0.30;;;12.80;99.90;;;;;;5050772;28;20025;-72
2022/12/23 07:57:52;;;;;;;0.30;0.30;;;12.80;99.90;;;;;;5050766;28;20029;-71
2022/12/23 08:00:19;;;;;;;0.20;0.20;;;12.80;99.90;;;;;;5050422;28;20488;-73
2022/12/23 08:02:45;;;;;;;1.50;1.40;;;13.00;99.90;;;;;;5066358;28;20035;-72
2022/12/23 08:05:12;;;;;;;0.20;0.20;;;13.00;99.90;;;;;;5069495;28;20107;-71
2022/12/23 08:07:38;;;;;;;0.20;0.20;;;13.10;99.90;;;;;;5070626;28;20029;-71
2022/12/23 08:10:05;;;;;;;0.20;0.20;;;13.20;99.90;;;;;;5069130;28;20606;-71
2022/12/23 08:12:31;;;;;;;0.30;0.30;;;13.20;99.90;;;;;;5062774;28;20032;-72
2022/12/23 08:14:57;;;;;;;0.20;0.20;;;13.30;99.90;;;;;;5055877;28;20024;-72
2022/12/23 08:17:26;;;;;;;0.20;0.20;;;13.30;99.90;;;;;;5058013;28;20115;-71
2022/12/23 08:19:52;;;;;;;0.10;0.10;;;13.40;99.90;;;;;;5070461;28;20542;-72
2022/12/23 08:22:17;;;;;;;0.20;0.20;;;13.40;99.90;;;;;;5074399;28;20025;-74
2022/12/23 08:24:43;;;;;;;0.20;0.20;;;13.50;99.90;;;;;;5067213;28;20519;-74
2022/12/23 08:27:09;;;;;;;0.20;0.20;;;13.50;99.90;;;;;;5063867;28;20094;-70
2022/12/23 08:29:35;;;;;;;0.20;0.20;;;13.70;99.90;;;;;;5074281;28;20028;-73
2022/12/23 08:32:01;;;;;;;0.20;0.20;;;13.80;1.00;;;;;;5074258;28;20036;-71
2022/12/23 08:34:27;;;;;;;0.20;0.20;;;13.90;99.90;;;;;;5063954;28;20025;-71
2022/12/23 08:36:52;;;;;;;0.20;0.20;;;14.00;99.90;;;;;;5059666;28;20012;-71
2022/12/23 08:39:18;;;;;;;0.20;0.20;;;14.10;99.90;;;;;;5071192;28;20025;-69
2022/12/23 08:41:46;;;;;;;0.20;0.20;;;14.20;99.90;;;;;;5073958;28;20020;-70
2022/12/23 08:44:13;;;;;;;0.20;0.20;;;14.30;99.90;;;;;;5074024;28;20161;-69
2022/12/23 08:46:40;;;;;;;0.35;0.35;;;14.50;1.00;;;;;;5068189;28;20071;-68
2022/12/23 08:49:06;;;;;;;0.20;0.20;;;14.60;23.00;;;;;;5053955;28;20025;-71
2022/12/23 08:51:33;;;;;;;0.20;0.20;;;14.80;99.90;;;;;;5058520;28;20016;-71
2022/12/23 08:53:59;;;;;;;0.20;0.20;;;15.00;99.90;;;;;;5067942;28;20908;-75
2022/12/23 08:56:28;;;;;;;0.20;0.20;;;15.20;99.90;;;;;;5073062;28;20602;-77
2022/12/23 08:58:54;;;;;;;0.20;0.20;;;15.30;99.90;;;;;;5057227;28;20059;-76
2022/12/23 09:01:23;;;;;;;0.20;0.20;;;15.40;1.00;;;;;;5063855;28;20020;-72
2022/12/23 09:03:49;;;;;;;0.20;0.20;;;15.40;49.90;;;;;;5061691;28;20024;-73
2022/12/23 09:06:20;;;;;;;1.65;1.17;;;15.40;99.90;;;;;;5053264;28;20037;-70
2022/12/23 09:08:48;;;;;;;0.20;0.20;;;15.50;99.90;;;;;;5053807;28;20045;-70
2022/12/23 09:11:17;;;;;;;0.20;0.20;;;15.60;99.90;;;;;;5052047;28;20599;-72
2022/12/23 09:13:43;;;;;;;0.28;0.28;;;15.60;99.90;;;;;;5054253;28;20025;-76
2022/12/23 09:16:09;;;;;;;0.68;0.63;;;15.80;99.90;;;;;;5053299;28;20116;-76
2022/12/23 09:18:36;;;;;;;0.20;0.20;;;15.80;99.90;;;;;;5052870;28;20029;-74
2022/12/23 09:21:05;;;;;;;0.20;0.20;;;15.80;99.90;;;;;;5059920;28;20101;-76
2022/12/23 09:23:31;;;;;;;0.20;0.20;;;15.90;99.90;;;;;;5073074;28;20021;-77
2022/12/23 09:25:57;;;;;;;0.20;0.20;;;16.40;99.90;;;;;;5069035;28;20524;-74
2022/12/23 09:28:24;;;;;;;0.20;0.20;;;16.50;99.90;;;;;;5054753;28;20055;-75
2022/12/23 09:30:50;;;;;;;0.20;0.20;;;16.60;99.90;;;;;;5053332;28;20071;-73
2022/12/23 09:33:16;;;;;;;0.20;0.20;;;16.60;99.90;;;;;;5059595;28;21561;-74
2022/12/23 09:35:42;;;;;;;0.22;0.22;;;16.60;99.90;;;;;;5076668;28;20484;-73
2022/12/23 09:38:07;;;;;;;0.20;0.20;;;16.70;99.90;;;;;;5058228;28;20068;-73
2022/12/23 09:40:36;;;;;;;0.20;0.20;;;16.70;99.90;;;;;;5052417;28;20473;-78
2022/12/23 09:43:13;;;;;;;0.20;0.20;;;16.80;99.90;;;;;;5069076;28;20055;-74
2022/12/23 09:45:58;;;;;;;0.20;0.20;;;16.80;99.90;;;;;;5072763;28;20107;-75
2022/12/23 09:48:29;;;;;;;1.67;1.58;;;16.70;99.90;;;;;;5073056;28;20110;-73
2022/12/23 09:50:55;;;;;;;7.20;3.15;;;16.70;99.90;;;;;;5073334;28;20020;-76
2022/12/23 09:53:34;;;;;;;0.10;0.10;;;16.70;99.90;;;;;;5073228;28;20039;-74
2022/12/23 09:56:10;;;;;;;0.30;0.30;;;16.70;99.90;;;;;;5068008;28;20377;-74
2022/12/23 09:58:48;;;;;;;4.28;2.47;;;16.70;99.90;;;;;;5051222;28;20035;-73
2022/12/23 10:01:25;;;;;;;3.13;1.65;;;16.70;99.90;;;;;;5056648;28;20484;-71
2022/12/23 10:04:21;;;;;;;0.50;0.50;;;16.70;99.90;;;;;;5063661;28;20028;-71
2022/12/23 10:07:00;;;;;;;0.20;0.20;;;16.70;99.90;;;;;;5052394;28;20036;-77
2022/12/23 10:09:27;;;;;;;0.20;0.20;;;16.70;99.90;;;;;;5053187;28;20021;-78
2022/12/23 10:11:53;;;;;;;0.50;0.50;;;16.70;99.90;;;;;;5063736;28;20032;-75
2022/12/23 10:14:27;;;;;;;0.20;0.20;;;16.70;99.90;;;;;;5068070;28;20499;-75
2022/12/23 10:17:07;;;;;;;0.20;0.20;;;16.80;99.90;;;;;;5058912;28;20064;-73
2022/12/23 10:19:45;;;;;;;0.20;0.20;;;16.70;99.90;;;;;;5064355;28;20129;-72
2022/12/23 10:22:24;;;;;;;0.20;0.20;;;16.80;99.90;;;;;;5070729;28;20029;-70
2022/12/23 10:24:50;;;;;;;0.20;0.20;;;16.80;99.90;;;;;;5072000;28;20044;-70
2022/12/23 10:27:35;;;;;;;0.20;0.20;;;16.70;99.90;;;;;;5070347;28;20413;-71
2022/12/23 10:30:15;;;;;;;0.20;0.20;;;16.70;99.90;;;;;;5067277;28;20047;-70
2022/12/23 10:33:05;;;;;;;0.30;0.30;;;16.70;99.90;;;;;;5058897;28;20056;-71
2022/12/23 10:36:08;;;;;;;21.75;3.90;;;16.60;99.90;;;;;;5051759;28;20032;-69
2022/12/23 10:38:55;;;;;;;0.20;0.20;;;16.60;99.90;;;;;;5053274;28;20045;-71
2022/12/23 10:41:45;;;;;;;0.20;0.20;;;16.60;99.90;;;;;;5053917;28;20371;-71
2022/12/23 10:44:47;;;;;;;0.20;0.20;;;16.70;99.90;;;;;;5053650;28;20104;-73
2022/12/23 10:47:27;;;;;;;0.20;0.20;;;16.70;99.90;;;;;;5052760;28;20113;-73
2022/12/23 10:50:10;;;;;;;0.20;0.20;;;16.80;99.90;;;;;;5052630;28;20017;-72
2022/12/23 10:52:40;;;;;;;1.45;1.23;;;16.80;99.90;;;;;;5051157;28;20362;-72
2022/12/23 10:55:12;;;;;;;0.20;0.20;;;16.90;99.90;;;;;;5051383;28;20037;-70
2022/12/23 10:57:38;;;;;;;0.73;0.73;;;16.90;99.90;;;;;;5068615;28;20032;-70
2022/12/23 11:00:20;;;;;;;5.00;1.17;;;16.90;99.90;;;;;;5059139;28;20377;-72
2022/12/23 11:03:15;;;;;;;0.30;0.30;;;16.80;99.90;;;;;;5066249;28;20032;-70
2022/12/23 11:05:41;;;;;;;31.25;1.73;;;16.90;99.90;;;;;;5056377;28;20032;-67
2022/12/23 11:08:08;;;;;;;0.75;0.32;;;16.80;99.90;;;;;;5064535;28;20037;-68
2022/12/23 11:10:34;;;;;;;0.30;0.30;;;16.90;99.90;;;;;;5071276;28;20039;-69
2022/12/23 11:13:00;;;;;;;0.20;0.20;;;16.80;99.90;;;;;;5063393;28;20052;-69
2022/12/23 11:15:28;;;;;;;1.33;1.27;;;16.80;99.90;;;;;;5056661;28;20374;-68
2022/12/23 11:17:58;;;;;;;0.80;0.73;;;16.70;99.90;;;;;;5053764;28;20660;-68
2022/12/23 11:20:24;;;;;;;0.10;0.10;;;16.70;99.90;;;;;;5052299;28;20029;-67
2022/12/23 11:22:57;;;;;;;0.45;0.45;;;16.70;99.90;;;;;;5061934;28;20508;-67
2022/12/23 11:25:29;;;;;;;7.97;1.75;;;16.70;99.90;;;;;;5050938;28;20045;-66
2022/12/23 11:28:02;;;;;;;1.65;1.60;;;16.70;99.90;;;;;;5059353;28;20036;-65
2022/12/23 11:30:30;;;;;;;0.35;0.35;;;16.70;99.90;;;;;;5052984;28;20040;-67
2022/12/23 11:32:56;;;;;;;14.10;7.43;;;16.60;99.90;;;;;;5051063;28;20067;-67
2022/12/23 11:35:29;;;;;;;8.95;3.50;;;16.60;99.90;;;;;;5051204;28;20108;-67
2022/12/23 11:37:57;;;;;;;0.98;0.88;;;16.60;99.90;;;;;;5051479;28;20025;-66
2022/12/23 11:40:26;;;;;;;0.30;0.30;;;16.60;99.90;;;;;;5051832;28;20028;-67
2022/12/23 11:42:59;;;;;;;0.50;0.50;;;16.60;99.90;;;;;;5051343;28;20017;-68
2022/12/23 11:45:28;;;;;;;0.75;0.75;;;16.70;99.90;;;;;;5055801;28;20041;-68
2022/12/23 11:47:55;;;;;;;1.55;0.80;;;16.70;99.90;;;;;;5055264;28;20029;-65
2022/12/23 11:50:28;;;;;;;0.20;0.20;;;16.70;99.90;;;;;;5054859;28;20021;-66
2022/12/23 11:53:08;;;;;;;4.68;1.48;;;16.80;99.90;;;;;;5055195;28;20036;-65
2022/12/23 11:55:34;;;;;;;14.77;0.63;;;16.60;99.90;;;;;;5056327;28;20036;-66
2022/12/23 11:58:01;;;;;;;0.20;0.20;;;16.60;99.90;;;;;;5054912;28;20024;-66
2022/12/23 12:00:41;;;;;;;1.17;1.08;;;16.50;99.90;;;;;;5054382;28;20021;-65
2022/12/23 12:03:17;;;;;;;22.02;1.05;;;16.40;99.90;;;;;;5054812;28;20021;-66
2022/12/23 12:05:50;;;;;;;3.17;2.97;;;16.40;99.90;;;;;;5053943;28;20120;-65
2022/12/23 12:08:21;;;;;;;12.57;1.92;;;16.40;99.90;;;;;;5056043;28;20033;-67
2022/12/23 12:10:51;;;;;;;0.43;0.43;;;16.50;99.90;;;;;;5054825;28;20048;-66
2022/12/23 12:13:39;;;;;;;0.38;0.38;;;16.50;99.90;;;;;;5054575;28;20120;-65
2022/12/23 12:16:29;;;;;;;4.10;2.75;;;16.60;99.90;;;;;;5055396;28;20037;-65
2022/12/23 12:19:05;;;;;;;0.50;0.50;;;16.70;99.90;;;;;;5054214;28;20025;-66
2022/12/23 12:21:36;;;;;;;0.20;0.20;;;16.70;99.90;;;;;;5069351;28;20125;-66
2022/12/23 12:24:18;;;;;;;0.25;0.25;;;16.70;99.90;;;;;;5056285;28;20425;-66
2022/12/23 12:26:49;;;;;;;0.75;0.75;;;16.60;99.90;;;;;;5054328;28;20041;-66
2022/12/23 12:29:34;;;;;;;5.15;4.78;;;16.40;99.90;;;;;;5054475;28;20025;-66
2022/12/23 12:32:01;;;;;;;3.05;2.15;;;16.40;99.90;;;;;;5054429;28;20021;-66
2022/12/23 12:34:51;;;;;;;41.13;6.43;;;16.60;99.90;;;;;;5055132;28;20055;-64
2022/12/23 12:37:39;;;;;;;40.70;5.95;;;17.00;99.90;;;;;;5054281;28;20033;-65
2022/12/23 12:40:24;;;;;;;42.22;7.78;;;17.00;99.90;;;;;;5054345;28;20075;-65
2022/12/23 12:43:04;;;;;;;54.22;7.78;;;16.70;99.90;;;;;;5054380;28;20025;-63
2022/12/23 12:45:40;;;;;;;49.97;7.18;;;16.60;99.90;;;;;;5055649;28;20041;-66
2022/12/23 12:48:26;;;;;;;41.80;6.43;;;16.40;99.90;;;;;;5053641;28;20115;-66
2022/12/23 12:51:06;;;;;;;54.90;8.10;;;16.40;99.90;;;;;;5032032;28;20120;-66
2022/12/23 12:53:34;;;;;;;34.90;8.02;;;16.50;99.90;;;;;;5054736;28;20041;-65
2022/12/23 12:56:09;;;;;;;62.92;10.60;;;16.40;99.90;;;;;;5053054;28;20037;-67
2022/12/23 12:58:37;;;;;;;51.10;7.88;;;16.40;99.90;;;;;;5054670;28;20067;-66
2022/12/23 13:01:17;;;;;;;38.15;6.45;;;16.30;99.90;;;;;;5054754;28;20025;-66
2022/12/23 13:04:14;;;;;;;27.02;5.35;;;16.40;99.90;;;;;;5056084;28;20363;-66
2022/12/23 13:06:46;;;;;;;41.63;5.90;;;16.40;1.00;;;;;;5053469;28;20504;-64
2022/12/23 13:09:49;;;;;;;38.95;6.55;;;16.20;99.90;;;;;;5053664;28;20040;-68
2022/12/23 13:12:47;;;;;;;47.95;6.10;;;16.30;99.90;;;;;;5054550;28;20111;-67
2022/12/23 13:15:20;;;;;;;34.92;6.50;;;16.20;99.90;;;;;;5050277;28;20123;-66
2022/12/23 13:18:11;;;;;;;44.85;7.30;;;16.20;99.90;;;;;;5069979;28;20135;-66
2022/12/23 13:20:58;;;;;;;42.25;6.43;;;16.40;1.00;;;;;;5053456;28;20036;-66
2022/12/23 13:23:49;;;;;;;44.13;7.13;;;16.20;1.00;;;;;;5053373;28;20029;-66
2022/12/23 13:26:31;;;;;;;36.65;5.82;;;16.30;99.90;;;;;;5023954;28;20049;-64
2022/12/23 13:29:07;;;;;;;50.40;6.43;;;16.30;99.90;;;;;;5053136;28;20021;-65
2022/12/23 13:31:57;;;;;;;49.33;6.70;;;16.10;99.90;;;;;;5053074;28;20025;-65
2022/12/23 13:34:31;;;;;;;42.30;7.00;;;16.10;73.40;;;;;;5056923;28;20024;-66